createdAt,value
2018-09-30T00:00:34.531Z,994.91
2018-09-30T00:01:34.542Z,994.95
2018-09-30T00:02:34.513Z,994.90
2018-09-30T00:03:34.514Z,994.91
2018-09-30T00:04:34.492Z,994.89
2018-09-30T00:05:34.483Z,994.88
2018-09-30T00:06:34.470Z,994.88
2018-09-30T00:07:34.486Z,994.87
2018-09-30T00:08:34.463Z,994.85
2018-09-30T00:09:34.436Z,994.81
2018-09-30T00:10:34.426Z,994.87
2018-09-30T00:11:34.416Z,994.87
2018-09-30T00:12:34.405Z,994.85
2018-09-30T00:13:34.732Z,994.88
2018-09-30T00:14:34.382Z,994.87
2018-09-30T00:15:34.375Z,994.87
2018-09-30T00:16:34.367Z,994.91
2018-09-30T00:17:34.351Z,994.90
2018-09-30T00:18:34.356Z,994.84
2018-09-30T00:19:34.383Z,994.91
2018-09-30T00:20:34.319Z,994.87
2018-09-30T00:21:34.309Z,994.88
2018-09-30T00:22:34.300Z,994.85
2018-09-30T00:23:34.302Z,994.82
2018-09-30T00:24:34.277Z,994.85
2018-09-30T00:25:34.291Z,994.86
2018-09-30T00:26:34.255Z,994.86
2018-09-30T00:27:34.244Z,994.82
2018-09-30T00:28:34.248Z,994.86
2018-09-30T00:29:34.225Z,994.81
2018-09-30T00:30:34.214Z,994.79
2018-09-30T00:31:34.212Z,994.90
2018-09-30T00:32:34.194Z,994.83
2018-09-30T00:33:34.194Z,994.80
2018-09-30T00:34:34.168Z,994.83
2018-09-30T00:35:34.161Z,994.80
2018-09-30T00:36:34.149Z,994.76
2018-09-30T00:37:34.168Z,994.75
2018-09-30T00:38:34.141Z,994.79
2018-09-30T00:39:34.120Z,994.83
2018-09-30T00:40:34.108Z,994.78
2018-09-30T00:41:34.095Z,994.82
2018-09-30T00:42:34.083Z,994.74
2018-09-30T00:43:34.117Z,994.73
2018-09-30T00:44:34.063Z,994.71
2018-09-30T00:45:34.053Z,994.76
2018-09-30T00:46:34.042Z,994.69
2018-09-30T00:47:34.033Z,994.67
2018-09-30T00:48:34.043Z,994.67
2018-09-30T00:49:34.024Z,994.66
2018-09-30T00:50:33.998Z,994.60
2018-09-30T00:51:33.988Z,994.64
2018-09-30T00:52:33.979Z,994.65
2018-09-30T00:53:33.968Z,994.63
2018-09-30T00:54:34.012Z,994.65
2018-09-30T00:55:33.949Z,994.60
2018-09-30T00:56:33.934Z,994.67
2018-09-30T00:57:33.923Z,994.59
2018-09-30T00:58:33.916Z,994.62
2018-09-30T00:59:33.920Z,994.66
2018-09-30T01:00:33.911Z,994.68
2018-09-30T01:01:33.883Z,994.66
2018-09-30T01:02:33.871Z,994.65
2018-09-30T01:03:33.861Z,994.63
2018-09-30T01:04:33.865Z,994.60
2018-09-30T01:05:33.840Z,994.61
2018-09-30T01:06:33.854Z,994.59
2018-09-30T01:07:33.818Z,994.59
2018-09-30T01:08:33.812Z,994.57
2018-09-30T01:09:33.813Z,994.58
2018-09-30T01:10:33.786Z,994.54
2018-09-30T01:11:33.776Z,994.50
2018-09-30T01:12:33.780Z,994.49
2018-09-30T01:13:33.755Z,994.53
2018-09-30T01:14:33.773Z,994.54
2018-09-30T01:15:33.737Z,994.51
2018-09-30T01:16:33.723Z,994.52
2018-09-30T01:17:33.714Z,994.56
2018-09-30T01:18:33.727Z,994.47
2018-09-30T01:19:33.705Z,994.50
2018-09-30T01:20:33.684Z,994.47
2018-09-30T01:21:33.676Z,994.48
2018-09-30T01:22:33.659Z,994.37
2018-09-30T01:23:33.651Z,994.37
2018-09-30T01:24:33.685Z,994.37
2018-09-30T01:25:33.628Z,994.42
2018-09-30T01:26:33.621Z,994.36
2018-09-30T01:27:33.607Z,994.40
2018-09-30T01:28:33.596Z,994.42
2018-09-30T01:29:33.586Z,994.41
2018-09-30T01:30:33.614Z,994.36
2018-09-30T01:31:33.564Z,994.43
2018-09-30T01:32:33.555Z,994.40
2018-09-30T01:33:33.545Z,994.40
2018-09-30T01:34:33.534Z,994.40
2018-09-30T01:35:33.535Z,994.41
2018-09-30T01:36:33.532Z,994.41
2018-09-30T01:37:33.504Z,994.42
2018-09-30T01:38:33.492Z,994.43
2018-09-30T01:39:33.479Z,994.36
2018-09-30T01:40:33.490Z,994.34
2018-09-30T01:41:33.461Z,994.36
2018-09-30T01:42:33.471Z,994.39
2018-09-30T01:43:33.437Z,994.44
2018-09-30T01:44:33.429Z,994.41
2018-09-30T01:45:33.431Z,994.45
2018-09-30T01:46:33.405Z,994.46
2018-09-30T01:47:33.396Z,994.43
2018-09-30T01:48:33.398Z,994.46
2018-09-30T01:49:33.376Z,994.43
2018-09-30T01:50:33.380Z,994.42
2018-09-30T01:51:33.352Z,994.41
2018-09-30T01:52:33.343Z,994.44
2018-09-30T01:53:33.330Z,994.43
2018-09-30T01:54:33.347Z,994.41
2018-09-30T01:55:33.325Z,994.41
2018-09-30T01:56:33.301Z,994.38
2018-09-30T01:57:33.288Z,994.42
2018-09-30T01:58:33.281Z,994.43
2018-09-30T01:59:33.271Z,994.42
2018-09-30T02:00:33.299Z,994.40
2018-09-30T02:01:33.251Z,994.37
2018-09-30T02:02:33.237Z,994.38
2018-09-30T02:03:33.226Z,994.33
2018-09-30T02:04:33.220Z,994.36
2018-09-30T02:05:33.223Z,994.30
2018-09-30T02:06:33.223Z,994.28
2018-09-30T02:07:33.185Z,994.34
2018-09-30T02:08:33.174Z,994.28
2018-09-30T02:09:33.164Z,994.29
2018-09-30T02:10:33.165Z,994.28
2018-09-30T02:11:33.142Z,994.32
2018-09-30T02:12:33.145Z,994.30
2018-09-30T02:13:33.120Z,994.30
2018-09-30T02:14:33.108Z,994.33
2018-09-30T02:15:33.111Z,994.33
2018-09-30T02:16:33.088Z,994.34
2018-09-30T02:17:33.078Z,994.35
2018-09-30T02:18:33.093Z,994.32
2018-09-30T02:19:33.056Z,994.28
2018-09-30T02:20:33.060Z,994.33
2018-09-30T02:21:33.039Z,994.30
2018-09-30T02:22:33.024Z,994.32
2018-09-30T02:23:33.014Z,994.32
2018-09-30T02:24:33.026Z,994.34
2018-09-30T02:25:33.006Z,994.32
2018-09-30T02:26:32.981Z,994.32
2018-09-30T02:27:32.970Z,994.35
2018-09-30T02:28:32.969Z,994.30
2018-09-30T02:29:32.953Z,994.27
2018-09-30T02:30:32.963Z,994.29
2018-09-30T02:31:32.946Z,994.28
2018-09-30T02:32:32.916Z,994.31
2018-09-30T02:33:32.906Z,994.33
2018-09-30T02:34:32.897Z,994.29
2018-09-30T02:35:32.885Z,994.24
2018-09-30T02:36:32.906Z,994.29
2018-09-30T02:37:32.879Z,994.27
2018-09-30T02:38:32.853Z,994.27
2018-09-30T02:39:32.843Z,994.25
2018-09-30T02:40:32.831Z,994.24
2018-09-30T02:41:32.836Z,994.26
2018-09-30T02:42:32.810Z,994.23
2018-09-30T02:43:32.814Z,994.21
2018-09-30T02:44:32.789Z,994.20
2018-09-30T02:45:32.780Z,994.21
2018-09-30T02:46:32.783Z,994.23
2018-09-30T02:47:32.764Z,994.21
2018-09-30T02:48:32.745Z,994.18
2018-09-30T02:49:32.759Z,994.08
2018-09-30T02:50:32.725Z,994.11
2018-09-30T02:51:32.731Z,994.09
2018-09-30T02:52:32.704Z,994.12
2018-09-30T02:53:32.695Z,994.12
2018-09-30T02:54:32.682Z,994.05
2018-09-30T02:55:32.693Z,994.05
2018-09-30T02:56:32.675Z,994.04
2018-09-30T02:57:32.649Z,994.05
2018-09-30T02:58:32.641Z,994.08
2018-09-30T02:59:32.631Z,994.05
2018-09-30T03:00:32.621Z,994.09
2018-09-30T03:01:32.649Z,994.00
2018-09-30T03:02:32.599Z,994.00
2018-09-30T03:03:32.589Z,994.04
2018-09-30T03:04:32.576Z,994.00
2018-09-30T03:05:32.563Z,993.98
2018-09-30T03:06:32.584Z,993.96
2018-09-30T03:07:32.567Z,993.99
2018-09-30T03:08:32.533Z,993.89
2018-09-30T03:09:32.522Z,993.88
2018-09-30T03:10:32.509Z,993.82
2018-09-30T03:11:32.500Z,993.83
2018-09-30T03:12:32.504Z,993.83
2018-09-30T03:13:32.501Z,993.79
2018-09-30T03:14:32.467Z,993.80
2018-09-30T03:15:32.459Z,993.80
2018-09-30T03:16:32.448Z,993.83
2018-09-30T03:17:32.452Z,993.76
2018-09-30T03:18:32.426Z,993.78
2018-09-30T03:19:32.434Z,993.82
2018-09-30T03:20:32.404Z,993.78
2018-09-30T03:21:32.397Z,993.83
2018-09-30T03:22:32.399Z,993.81
2018-09-30T03:23:32.373Z,993.77
2018-09-30T03:24:32.363Z,993.82
2018-09-30T03:25:32.374Z,993.80
2018-09-30T03:26:32.340Z,993.78
2018-09-30T03:27:32.341Z,993.82
2018-09-30T03:28:32.320Z,993.81
2018-09-30T03:29:32.306Z,993.83
2018-09-30T03:30:32.298Z,993.82
2018-09-30T03:31:32.314Z,993.80
2018-09-30T03:32:32.303Z,993.83
2018-09-30T03:33:32.267Z,993.78
2018-09-30T03:34:32.255Z,993.82
2018-09-30T03:35:32.244Z,993.75
2018-09-30T03:36:32.234Z,993.75
2018-09-30T03:37:32.260Z,993.78
2018-09-30T03:38:32.212Z,993.76
2018-09-30T03:39:32.216Z,993.79
2018-09-30T03:40:32.195Z,993.81
2018-09-30T03:41:32.184Z,993.82
2018-09-30T03:42:32.185Z,993.78
2018-09-30T03:43:32.181Z,993.78
2018-09-30T03:44:32.149Z,993.78
2018-09-30T03:45:32.139Z,993.78
2018-09-30T03:46:32.129Z,993.75
2018-09-30T03:47:32.149Z,993.75
2018-09-30T03:48:32.112Z,993.73
2018-09-30T03:49:32.118Z,993.80
2018-09-30T03:50:32.087Z,993.71
2018-09-30T03:51:32.078Z,993.75
2018-09-30T03:52:32.069Z,993.68
2018-09-30T03:53:32.073Z,993.63
2018-09-30T03:54:32.044Z,993.72
2018-09-30T03:55:32.066Z,993.72
2018-09-30T03:56:32.026Z,993.74
2018-09-30T03:57:32.010Z,993.70
2018-09-30T03:58:32.014Z,993.74
2018-09-30T03:59:32.041Z,993.64
2018-09-30T04:00:31.982Z,993.71
2018-09-30T04:01:31.993Z,993.76
2018-09-30T04:02:31.957Z,993.66
2018-09-30T04:03:31.963Z,993.73
2018-09-30T04:04:31.936Z,993.62
2018-09-30T04:05:31.925Z,993.63
2018-09-30T04:06:31.916Z,993.60
2018-09-30T04:07:31.931Z,993.53
2018-09-30T04:08:31.909Z,993.53
2018-09-30T04:09:31.894Z,993.52
2018-09-30T04:10:31.874Z,993.53
2018-09-30T04:11:31.868Z,993.49
2018-09-30T04:12:31.854Z,993.51
2018-09-30T04:13:31.884Z,993.53
2018-09-30T04:14:31.833Z,993.52
2018-09-30T04:15:31.829Z,993.55
2018-09-30T04:16:31.820Z,993.57
2018-09-30T04:17:31.897Z,993.53
2018-09-30T04:18:31.809Z,993.49
2018-09-30T04:19:31.805Z,993.51
2018-09-30T04:20:31.769Z,993.56
2018-09-30T04:21:31.759Z,993.52
2018-09-30T04:22:31.747Z,993.47
2018-09-30T04:23:31.751Z,993.50
2018-09-30T04:24:31.748Z,993.49
2018-09-30T04:25:31.802Z,993.48
2018-09-30T04:26:31.705Z,993.57
2018-09-30T04:27:31.694Z,993.52
2018-09-30T04:28:31.701Z,993.51
2018-09-30T04:29:31.678Z,993.52
2018-09-30T04:30:31.664Z,993.55
2018-09-30T04:31:31.674Z,993.52
2018-09-30T04:32:31.642Z,993.55
2018-09-30T04:33:31.646Z,993.59
2018-09-30T04:34:31.623Z,993.63
2018-09-30T04:35:31.611Z,993.60
2018-09-30T04:36:31.639Z,993.60
2018-09-30T04:37:31.614Z,993.64
2018-09-30T04:38:31.592Z,993.65
2018-09-30T04:39:31.570Z,993.64
2018-09-30T04:40:31.562Z,993.66
2018-09-30T04:41:31.548Z,993.62
2018-09-30T04:42:31.539Z,993.67
2018-09-30T04:43:31.582Z,993.61
2018-09-30T04:44:31.515Z,993.68
2018-09-30T04:45:31.510Z,993.62
2018-09-30T04:46:31.497Z,993.66
2018-09-30T04:47:31.486Z,993.66
2018-09-30T04:48:31.477Z,993.65
2018-09-30T04:49:31.505Z,993.65
2018-09-30T04:50:31.457Z,993.64
2018-09-30T04:51:31.444Z,993.68
2018-09-30T04:52:31.433Z,993.67
2018-09-30T04:53:31.422Z,993.62
2018-09-30T04:54:31.425Z,993.66
2018-09-30T04:55:31.432Z,993.67
2018-09-30T04:56:31.392Z,993.67
2018-09-30T04:57:31.382Z,993.68
2018-09-30T04:58:31.369Z,993.61
2018-09-30T04:59:31.375Z,993.67
2018-09-30T05:00:31.349Z,993.58
2018-09-30T05:01:31.363Z,993.72
2018-09-30T05:02:31.327Z,993.68
2018-09-30T05:03:31.320Z,993.72
2018-09-30T05:04:31.332Z,993.70
2018-09-30T05:05:31.300Z,993.70
2018-09-30T05:06:31.289Z,993.70
2018-09-30T05:07:31.294Z,993.68
2018-09-30T05:08:31.266Z,993.70
2018-09-30T05:09:31.270Z,993.72
2018-09-30T05:10:31.245Z,993.69
2018-09-30T05:11:31.234Z,993.73
2018-09-30T05:12:31.223Z,993.74
2018-09-30T05:13:31.237Z,993.67
2018-09-30T05:14:31.218Z,993.59
2018-09-30T05:15:31.196Z,993.64
2018-09-30T05:16:31.203Z,993.68
2018-09-30T05:17:31.171Z,993.65
2018-09-30T05:18:31.160Z,993.64
2018-09-30T05:19:31.188Z,993.59
2018-09-30T05:20:31.141Z,993.67
2018-09-30T05:21:31.131Z,993.63
2018-09-30T05:22:31.123Z,993.60
2018-09-30T05:23:31.116Z,993.58
2018-09-30T05:24:31.144Z,993.61
2018-09-30T05:25:31.134Z,993.55
2018-09-30T05:26:31.077Z,993.54
2018-09-30T05:27:31.071Z,993.55
2018-09-30T05:28:31.057Z,993.55
2018-09-30T05:29:31.062Z,993.57
2018-09-30T05:30:31.055Z,993.54
2018-09-30T05:31:31.030Z,993.56
2018-09-30T05:32:31.019Z,993.55
2018-09-30T05:33:31.004Z,993.54
2018-09-30T05:34:31.013Z,993.51
2018-09-30T05:35:30.984Z,993.49
2018-09-30T05:36:31.000Z,993.51
2018-09-30T05:37:30.966Z,993.56
2018-09-30T05:38:30.950Z,993.59
2018-09-30T05:39:30.956Z,993.65
2018-09-30T05:40:30.933Z,993.60
2018-09-30T05:41:30.920Z,993.56
2018-09-30T05:42:30.932Z,993.52
2018-09-30T05:43:30.901Z,993.47
2018-09-30T05:44:30.915Z,993.52
2018-09-30T05:45:30.877Z,993.49
2018-09-30T05:46:30.868Z,993.51
2018-09-30T05:47:30.857Z,993.48
2018-09-30T05:48:30.864Z,993.51
2018-09-30T05:49:30.837Z,993.49
2018-09-30T05:50:30.840Z,993.48
2018-09-30T05:51:30.819Z,993.43
2018-09-30T05:52:30.805Z,993.48
2018-09-30T05:53:30.797Z,993.43
2018-09-30T05:54:30.821Z,993.42
2018-09-30T05:55:30.787Z,993.43
2018-09-30T05:56:30.766Z,993.47
2018-09-30T05:57:30.788Z,993.40
2018-09-30T05:58:30.740Z,993.48
2018-09-30T05:59:30.729Z,993.43
2018-09-30T06:00:30.760Z,993.44
2018-09-30T06:01:30.712Z,993.45
2018-09-30T06:02:30.699Z,993.50
2018-09-30T06:03:30.692Z,993.52
2018-09-30T06:04:30.676Z,993.44
2018-09-30T06:05:30.679Z,993.44
2018-09-30T06:06:30.674Z,993.46
2018-09-30T06:07:30.648Z,993.50
2018-09-30T06:08:30.638Z,993.48
2018-09-30T06:09:30.741Z,993.50
2018-09-30T06:10:30.628Z,993.47
2018-09-30T06:11:30.602Z,993.46
2018-09-30T06:12:30.614Z,993.47
2018-09-30T06:13:30.580Z,993.46
2018-09-30T06:14:30.570Z,993.49
2018-09-30T06:15:30.573Z,993.51
2018-09-30T06:16:30.548Z,993.45
2018-09-30T06:17:30.538Z,993.52
2018-09-30T06:18:30.547Z,993.45
2018-09-30T06:19:30.518Z,993.36
2018-09-30T06:20:30.520Z,993.31
2018-09-30T06:21:30.498Z,993.35
2018-09-30T06:22:30.487Z,993.36
2018-09-30T06:23:30.478Z,993.32
2018-09-30T06:24:30.487Z,993.37
2018-09-30T06:25:30.470Z,993.32
2018-09-30T06:26:30.445Z,993.36
2018-09-30T06:27:30.433Z,993.37
2018-09-30T06:28:30.424Z,993.40
2018-09-30T06:29:30.409Z,993.38
2018-09-30T06:30:30.435Z,993.47
2018-09-30T06:31:30.453Z,993.45
2018-09-30T06:32:30.379Z,993.44
2018-09-30T06:33:30.367Z,993.42
2018-09-30T06:34:30.359Z,993.36
2018-09-30T06:35:30.359Z,993.41
2018-09-30T06:36:30.368Z,993.33
2018-09-30T06:37:30.328Z,993.38
2018-09-30T06:38:30.313Z,993.32
2018-09-30T06:39:30.304Z,993.37
2018-09-30T06:40:30.332Z,993.35
2018-09-30T06:41:30.282Z,993.42
2018-09-30T06:42:30.284Z,993.34
2018-09-30T06:43:30.277Z,993.30
2018-09-30T06:44:30.252Z,993.30
2018-09-30T06:45:30.327Z,993.31
2018-09-30T06:46:30.249Z,993.27
2018-09-30T06:47:30.217Z,993.25
2018-09-30T06:48:30.208Z,993.25
2018-09-30T06:49:30.212Z,993.26
2018-09-30T06:50:30.227Z,993.25
2018-09-30T06:51:30.188Z,993.20
2018-09-30T06:52:30.164Z,993.26
2018-09-30T06:53:30.152Z,993.29
2018-09-30T06:54:30.142Z,993.24
2018-09-30T06:55:30.145Z,993.25
2018-09-30T06:56:30.140Z,993.22
2018-09-30T06:57:30.125Z,993.22
2018-09-30T06:58:30.116Z,993.20
2018-09-30T06:59:30.090Z,993.19
2018-09-30T07:00:30.081Z,993.19
2018-09-30T07:01:30.080Z,993.25
2018-09-30T07:02:30.057Z,993.19
2018-09-30T07:03:30.047Z,993.22
2018-09-30T07:04:30.052Z,993.18
2018-09-30T07:05:30.025Z,993.19
2018-09-30T07:06:30.035Z,993.20
2018-09-30T07:07:30.002Z,993.18
2018-09-30T07:08:29.992Z,993.17
2018-09-30T07:09:29.982Z,993.17
2018-09-30T07:10:29.985Z,993.21
2018-09-30T07:11:29.972Z,993.17
2018-09-30T07:12:29.949Z,993.19
2018-09-30T07:13:29.939Z,993.21
2018-09-30T07:14:29.928Z,993.20
2018-09-30T07:15:29.916Z,993.17
2018-09-30T07:16:29.931Z,993.18
2018-09-30T07:17:29.906Z,993.21
2018-09-30T07:18:29.886Z,993.21
2018-09-30T07:19:29.873Z,993.22
2018-09-30T07:20:29.863Z,993.14
2018-09-30T07:21:29.870Z,993.18
2018-09-30T07:22:29.847Z,993.18
2018-09-30T07:23:29.852Z,993.25
2018-09-30T07:24:29.821Z,993.26
2018-09-30T07:25:29.811Z,993.25
2018-09-30T07:26:29.813Z,993.22
2018-09-30T07:27:29.788Z,993.16
2018-09-30T07:28:29.777Z,993.16
2018-09-30T07:29:29.786Z,993.16
2018-09-30T07:30:29.754Z,993.18
2018-09-30T07:31:29.758Z,993.12
2018-09-30T07:32:29.735Z,993.17
2018-09-30T07:33:29.723Z,993.15
2018-09-30T07:34:29.712Z,993.19
2018-09-30T07:35:29.714Z,993.12
2018-09-30T07:36:29.715Z,993.12
2018-09-30T07:37:29.693Z,993.14
2018-09-30T07:38:29.726Z,993.12
2018-09-30T07:39:29.696Z,993.14
2018-09-30T07:40:29.664Z,993.11
2018-09-30T07:41:29.662Z,993.15
2018-09-30T07:42:29.647Z,993.08
2018-09-30T07:43:29.617Z,993.06
2018-09-30T07:44:29.630Z,993.04
2018-09-30T07:45:29.597Z,993.10
2018-09-30T07:46:29.600Z,993.05
2018-09-30T07:47:29.591Z,993.04
2018-09-30T07:48:29.578Z,992.97
2018-09-30T07:49:29.575Z,993.05
2018-09-30T07:50:29.541Z,992.99
2018-09-30T07:51:29.555Z,992.95
2018-09-30T07:52:29.565Z,993.02
2018-09-30T07:53:29.508Z,992.97
2018-09-30T07:54:29.511Z,993.01
2018-09-30T07:55:29.486Z,992.99
2018-09-30T07:56:29.478Z,993.00
2018-09-30T07:57:29.479Z,993.04
2018-09-30T07:58:29.454Z,993.04
2018-09-30T07:59:29.443Z,993.03
2018-09-30T08:00:29.443Z,992.99
2018-09-30T08:01:29.427Z,992.98
2018-09-30T08:02:29.426Z,992.99
2018-09-30T08:03:29.400Z,992.97
2018-09-30T08:04:29.388Z,992.95
2018-09-30T08:05:29.377Z,992.95
2018-09-30T08:06:29.505Z,992.95
2018-09-30T08:07:29.420Z,992.89
2018-09-30T08:08:29.364Z,992.92
2018-09-30T08:09:29.342Z,993.00
2018-09-30T08:10:29.336Z,992.91
2018-09-30T08:11:29.313Z,992.94
2018-09-30T08:12:29.322Z,992.93
2018-09-30T08:13:29.346Z,992.89
2018-09-30T08:14:29.296Z,992.91
2018-09-30T08:15:29.269Z,992.86
2018-09-30T08:16:29.286Z,992.85
2018-09-30T08:17:29.279Z,992.84
2018-09-30T08:18:29.238Z,992.89
2018-09-30T08:19:29.226Z,992.86
2018-09-30T08:20:29.231Z,992.82
2018-09-30T08:21:29.219Z,992.79
2018-09-30T08:22:29.208Z,992.85
2018-09-30T08:23:29.184Z,992.84
2018-09-30T08:24:29.234Z,992.79
2018-09-30T08:25:29.162Z,992.77
2018-09-30T08:26:29.167Z,992.75
2018-09-30T08:27:29.153Z,992.71
2018-09-30T08:28:29.129Z,992.72
2018-09-30T08:29:29.119Z,992.76
2018-09-30T08:30:29.106Z,992.74
2018-09-30T08:31:29.097Z,992.77
2018-09-30T08:32:29.111Z,992.74
2018-09-30T08:33:29.086Z,992.77
2018-09-30T08:34:29.075Z,992.76
2018-09-30T08:35:29.054Z,992.80
2018-09-30T08:36:29.045Z,992.77
2018-09-30T08:37:29.050Z,992.79
2018-09-30T08:38:29.022Z,992.80
2018-09-30T08:39:29.018Z,992.83
2018-09-30T08:40:29.010Z,992.82
2018-09-30T08:41:28.998Z,992.78
2018-09-30T08:42:29.005Z,992.81
2018-09-30T08:43:28.977Z,992.83
2018-09-30T08:44:28.962Z,992.84
2018-09-30T08:45:28.970Z,992.81
2018-09-30T08:46:28.963Z,992.83
2018-09-30T08:47:29.135Z,992.86
2018-09-30T08:48:28.924Z,992.83
2018-09-30T08:49:28.914Z,992.83
2018-09-30T08:50:28.901Z,992.77
2018-09-30T08:51:28.892Z,992.82
2018-09-30T08:52:28.895Z,992.83
2018-09-30T08:53:28.861Z,992.81
2018-09-30T08:54:28.863Z,992.82
2018-09-30T08:55:28.852Z,992.84
2018-09-30T08:56:28.856Z,992.82
2018-09-30T08:57:28.833Z,992.85
2018-09-30T08:58:28.819Z,992.85
2018-09-30T08:59:28.805Z,992.86
2018-09-30T09:00:28.791Z,992.82
2018-09-30T09:01:28.784Z,992.86
2018-09-30T09:02:28.799Z,992.85
2018-09-30T09:03:28.767Z,992.86
2018-09-30T09:04:28.779Z,992.83
2018-09-30T09:05:28.767Z,992.83
2018-09-30T09:06:28.739Z,992.75
2018-09-30T09:07:28.774Z,992.79
2018-09-30T09:08:28.700Z,992.83
2018-09-30T09:09:28.708Z,992.80
2018-09-30T09:10:28.684Z,992.70
2018-09-30T09:11:28.692Z,992.76
2018-09-30T09:12:28.674Z,992.72
2018-09-30T09:13:28.671Z,992.72
2018-09-30T09:14:28.640Z,992.70
2018-09-30T09:15:28.668Z,992.68
2018-09-30T09:16:28.616Z,992.67
2018-09-30T09:17:28.627Z,992.70
2018-09-30T09:18:28.617Z,992.69
2018-09-30T09:19:28.596Z,992.70
2018-09-30T09:20:28.595Z,992.66
2018-09-30T09:21:28.560Z,992.62
2018-09-30T09:22:28.620Z,992.65
2018-09-30T09:23:28.558Z,992.70
2018-09-30T09:24:28.539Z,992.65
2018-09-30T09:25:28.532Z,992.60
2018-09-30T09:26:28.519Z,992.60
2018-09-30T09:27:28.521Z,992.64
2018-09-30T09:28:28.500Z,992.65
2018-09-30T09:29:28.493Z,992.65
2018-09-30T09:30:28.482Z,992.58
2018-09-30T09:31:28.535Z,992.58
2018-09-30T09:32:28.451Z,992.52
2018-09-30T09:33:28.449Z,992.56
2018-09-30T09:34:28.435Z,992.53
2018-09-30T09:35:28.433Z,992.51
2018-09-30T09:36:28.410Z,992.53
2018-09-30T09:37:28.407Z,992.47
2018-09-30T09:38:28.415Z,992.46
2018-09-30T09:39:28.382Z,992.44
2018-09-30T09:40:28.369Z,992.45
2018-09-30T09:41:28.355Z,992.47
2018-09-30T09:42:28.341Z,992.49
2018-09-30T09:43:28.344Z,992.50
2018-09-30T09:44:28.342Z,992.50
2018-09-30T09:45:28.328Z,992.39
2018-09-30T09:46:28.301Z,992.42
2018-09-30T09:47:28.317Z,992.44
2018-09-30T09:48:28.292Z,992.42
2018-09-30T09:49:28.266Z,992.45
2018-09-30T09:50:28.254Z,992.39
2018-09-30T09:51:28.246Z,992.33
2018-09-30T09:52:28.296Z,992.28
2018-09-30T09:53:28.247Z,992.27
2018-09-30T09:54:28.218Z,992.27
2018-09-30T09:55:28.207Z,992.25
2018-09-30T09:56:28.187Z,992.26
2018-09-30T09:57:28.190Z,992.27
2018-09-30T09:58:28.184Z,992.26
2018-09-30T09:59:28.241Z,992.25
2018-09-30T10:00:28.153Z,992.22
2018-09-30T10:01:28.139Z,992.23
2018-09-30T10:02:28.130Z,992.21
2018-09-30T10:03:28.133Z,992.21
2018-09-30T10:04:28.107Z,992.19
2018-09-30T10:05:28.117Z,992.16
2018-09-30T10:06:28.092Z,992.09
2018-09-30T10:07:28.086Z,992.10
2018-09-30T10:08:28.078Z,992.04
2018-09-30T10:09:28.060Z,992.00
2018-09-30T10:10:28.045Z,992.00
2018-09-30T10:11:28.043Z,991.98
2018-09-30T10:12:28.021Z,991.96
2018-09-30T10:13:28.026Z,992.05
2018-09-30T10:14:28.005Z,991.98
2018-09-30T10:15:27.998Z,991.96
2018-09-30T10:16:27.985Z,991.93
2018-09-30T10:17:27.967Z,991.91
2018-09-30T10:18:27.971Z,991.94
2018-09-30T10:19:27.967Z,991.90
2018-09-30T10:20:27.934Z,991.87
2018-09-30T10:21:27.932Z,991.87
2018-09-30T10:22:27.934Z,991.91
2018-09-30T10:23:27.930Z,991.87
2018-09-30T10:24:27.893Z,991.88
2018-09-30T10:25:27.894Z,991.87
2018-09-30T10:26:27.873Z,991.88
2018-09-30T10:27:27.867Z,991.88
2018-09-30T10:28:27.868Z,991.86
2018-09-30T10:29:27.854Z,991.85
2018-09-30T10:30:27.835Z,991.86
2018-09-30T10:31:27.822Z,991.77
2018-09-30T10:32:27.812Z,991.72
2018-09-30T10:33:27.827Z,991.74
2018-09-30T10:34:27.798Z,991.73
2018-09-30T10:35:27.783Z,991.72
2018-09-30T10:36:27.777Z,991.67
2018-09-30T10:37:27.765Z,991.69
2018-09-30T10:38:27.875Z,991.70
2018-09-30T10:39:27.758Z,991.71
2018-09-30T10:40:27.731Z,991.68
2018-09-30T10:41:27.730Z,991.65
2018-09-30T10:42:27.720Z,991.66
2018-09-30T10:43:27.704Z,991.64
2018-09-30T10:44:27.703Z,991.63
2018-09-30T10:45:27.675Z,991.58
2018-09-30T10:46:27.670Z,991.62
2018-09-30T10:47:27.653Z,991.53
2018-09-30T10:48:27.799Z,991.54
2018-09-30T10:49:27.649Z,991.57
2018-09-30T10:50:27.622Z,991.54
2018-09-30T10:51:27.616Z,991.48
2018-09-30T10:52:27.608Z,991.47
2018-09-30T10:53:27.602Z,991.45
2018-09-30T10:54:27.599Z,991.44
2018-09-30T10:55:27.603Z,991.45
2018-09-30T10:56:27.573Z,991.49
2018-09-30T10:57:27.567Z,991.41
2018-09-30T10:58:27.552Z,991.43
2018-09-30T10:59:27.544Z,991.41
2018-09-30T11:00:27.525Z,991.40
2018-09-30T11:01:27.510Z,991.38
2018-09-30T11:02:27.495Z,991.37
2018-09-30T11:03:27.523Z,991.35
2018-09-30T11:04:27.496Z,991.33
2018-09-30T11:05:27.470Z,991.31
2018-09-30T11:06:27.462Z,991.30
2018-09-30T11:07:27.444Z,991.32
2018-09-30T11:08:27.445Z,991.25
2018-09-30T11:09:27.454Z,991.20
2018-09-30T11:10:27.420Z,991.16
2018-09-30T11:11:30.227Z,991.16
2018-09-30T11:12:27.406Z,991.14
2018-09-30T11:13:27.387Z,991.15
2018-09-30T11:14:27.398Z,991.12
2018-09-30T11:15:27.373Z,991.05
2018-09-30T11:16:27.370Z,991.04
2018-09-30T11:17:27.349Z,991.06
2018-09-30T11:18:27.334Z,991.07
2018-09-30T11:19:27.342Z,991.07
2018-09-30T11:20:27.308Z,991.02
2018-09-30T11:21:27.302Z,990.95
2018-09-30T11:22:27.356Z,990.96
2018-09-30T11:23:27.288Z,990.97
2018-09-30T11:24:27.299Z,990.90
2018-09-30T11:25:27.271Z,990.90
2018-09-30T11:26:27.249Z,990.91
2018-09-30T11:27:27.238Z,990.92
2018-09-30T11:28:27.239Z,990.91
2018-09-30T11:29:27.241Z,990.91
2018-09-30T11:30:27.216Z,990.88
2018-09-30T11:31:27.197Z,990.88
2018-09-30T11:32:27.188Z,990.91
2018-09-30T11:33:27.173Z,990.82
2018-09-30T11:34:27.166Z,990.81
2018-09-30T11:35:27.176Z,990.78
2018-09-30T11:36:27.143Z,990.72
2018-09-30T11:37:27.135Z,990.67
2018-09-30T11:38:27.129Z,990.58
2018-09-30T11:39:27.136Z,990.57
2018-09-30T11:40:27.114Z,990.49
2018-09-30T11:41:27.103Z,990.61
2018-09-30T11:42:27.087Z,990.48
2018-09-30T11:43:27.077Z,990.59
2018-09-30T11:44:27.079Z,990.61
2018-09-30T11:45:27.077Z,990.39
2018-09-30T11:46:27.046Z,990.54
2018-09-30T11:47:27.038Z,990.37
2018-09-30T11:48:27.035Z,990.55
2018-09-30T11:49:27.022Z,990.45
2018-09-30T11:50:27.025Z,990.51
2018-09-30T11:51:27.005Z,990.53
2018-09-30T11:52:26.999Z,990.45
2018-09-30T11:53:26.986Z,990.43
2018-09-30T11:54:26.967Z,990.36
2018-09-30T11:55:26.966Z,990.30
2018-09-30T11:56:26.957Z,990.29
2018-09-30T11:57:26.939Z,990.26
2018-09-30T11:58:26.941Z,990.21
2018-09-30T11:59:26.926Z,990.20
2018-09-30T12:00:26.911Z,990.15
2018-09-30T12:01:27.827Z,990.12
2018-09-30T12:02:26.946Z,990.11
2018-09-30T12:03:27.452Z,990.08
2018-09-30T12:04:26.859Z,990.02
2018-09-30T12:05:26.857Z,990.02
2018-09-30T12:06:26.836Z,990.03
2018-09-30T12:07:26.832Z,990.00
2018-09-30T12:08:26.809Z,990.05
2018-09-30T12:09:26.808Z,990.02
2018-09-30T12:10:26.799Z,990.00
2018-09-30T12:11:26.808Z,989.99
2018-09-30T12:12:26.765Z,989.98
2018-09-30T12:13:26.771Z,990.01
2018-09-30T12:14:26.750Z,989.90
2018-09-30T12:15:26.754Z,989.99
2018-09-30T12:16:26.719Z,989.92
2018-09-30T12:17:26.727Z,989.90
2018-09-30T12:18:26.707Z,989.92
2018-09-30T12:19:26.745Z,989.93
2018-09-30T12:20:26.706Z,989.85
2018-09-30T12:21:26.692Z,989.84
2018-09-30T12:22:26.660Z,989.81
2018-09-30T12:23:26.645Z,989.81
2018-09-30T12:24:26.652Z,989.76
2018-09-30T12:25:26.663Z,989.79
2018-09-30T12:26:26.630Z,989.77
2018-09-30T12:27:26.642Z,989.78
2018-09-30T12:28:26.632Z,989.67